Time;durP1;ratioP1;P1;durP2;ratioP2;P2;SDS_P1;SDS_P2;PMS_P1;PMS_P2;Temp;Humidity;BMP_temperature;BMP_pressure;BME280_temperature;BME280_humidity;BME280_pressure;Samples;Min_cycle;Max_cycle;Signal;HPM_P1;HPM_P2
2022/11/25 00:02:21;;;;;;;14.70;4.78;;;;;;;;;;5119547;27;20114;-62
2022/11/25 00:04:47;;;;;;;11.73;4.57;;;;;;;;;;5129365;27;20464;-63
2022/11/25 00:07:13;;;;;;;9.60;3.97;;;;;;;;;;5110410;27;20118;-62
2022/11/25 00:09:40;;;;;;;10.02;4.00;;;;;;;;;;5109138;27;20106;-62
2022/11/25 00:12:06;;;;;;;14.90;4.72;;;;;;;;;;5118265;27;20114;-62
2022/11/25 00:14:32;;;;;;;11.93;4.85;;;;;;;;;;5124591;27;20534;-63
2022/11/25 00:16:58;;;;;;;13.18;4.07;;;;;;;;;;5110786;27;20046;-62
2022/11/25 00:19:24;;;;;;;9.48;4.10;;;;;;;;;;5102515;28;20099;-62
2022/11/25 00:21:51;;;;;;;13.73;4.10;;;;;;;;;;5103816;28;20378;-62
2022/11/25 00:24:17;;;;;;;14.13;4.03;;;;;;;;;;5103442;28;20067;-62
2022/11/25 00:26:43;;;;;;;13.00;4.20;;;;;;;;;;5105096;28;20067;-62
2022/11/25 00:29:11;;;;;;;18.80;4.88;;;;;;;;;;5095456;28;20036;-62
2022/11/25 00:31:38;;;;;;;13.43;5.07;;;;;;;;;;5103631;28;20497;-62
2022/11/25 00:34:04;;;;;;;24.92;4.50;;;;;;;;;;5104961;28;20050;-62
2022/11/25 00:36:32;;;;;;;14.50;4.95;;;;;;;;;;5095734;28;20134;-62
2022/11/25 00:39:00;;;;;;;15.30;4.43;;;;;;;;;;5093102;28;20040;-62
2022/11/25 00:46:57;;;;;;;9.75;3.63;;;;;;;;;;5093915;28;20050;-62
2022/11/25 00:49:23;;;;;;;11.23;4.07;;;;;;;;;;5096037;28;20356;-63
2022/11/25 00:51:50;;;;;;;12.68;4.60;;;;;;;;;;5104760;28;20031;-63
2022/11/25 00:54:16;;;;;;;12.40;3.85;;;;;;;;;;5096881;28;20043;-62
2022/11/25 00:56:42;;;;;;;13.30;4.20;;;;;;;;;;5096762;28;20043;-62
2022/11/25 00:59:09;;;;;;;10.52;3.70;;;;;;;;;;5101509;28;20104;-62
2022/11/25 01:01:35;;;;;;;12.90;4.35;;;;;;;;;;5107256;28;20518;-63
2022/11/25 01:04:01;;;;;;;10.25;4.15;;;;;;;;;;5103650;28;20146;-62
2022/11/25 01:06:28;;;;;;;10.52;3.95;;;;;;;;;;5103416;28;20031;-63
2022/11/25 01:08:54;;;;;;;14.88;4.70;;;;;;;;;;5100181;28;20100;-62
2022/11/25 01:11:21;;;;;;;14.50;3.92;;;;;;;;;;5105331;28;20067;-63
2022/11/25 01:13:48;;;;;;;9.90;4.10;;;;;;;;;;5097350;28;20035;-62
2022/11/25 01:16:15;;;;;;;14.00;4.57;;;;;;;;;;5097851;28;20055;-62
2022/11/25 01:18:42;;;;;;;10.43;3.80;;;;;;;;;;5101901;28;20075;-62
2022/11/25 01:21:09;;;;;;;19.30;4.30;;;;;;;;;;5092701;28;20556;-62
2022/11/25 01:23:36;;;;;;;11.65;4.10;;;;;;;;;;5086674;28;20036;-62
2022/11/25 01:26:03;;;;;;;14.63;4.57;;;;;;;;;;5083970;28;20119;-63
2022/11/25 01:28:29;;;;;;;13.85;4.15;;;;;;;;;;5079523;28;20440;-62
2022/11/25 01:31:15;;;;;;;11.57;4.28;;;;;;;;;;5092394;28;20551;-62
2022/11/25 01:33:41;;;;;;;14.90;4.63;;;;;;;;;;5087155;28;20497;-63
2022/11/25 01:36:09;;;;;;;8.07;3.88;;;;;;;;;;5083947;28;20032;-62
2022/11/25 01:38:35;;;;;;;11.43;4.13;;;;;;;;;;5076361;28;20569;-63
2022/11/25 01:41:02;;;;;;;11.25;3.97;;;;;;;;;;5073899;28;20048;-63
2022/11/25 01:43:29;;;;;;;13.07;3.90;;;;;;;;;;5079976;28;20545;-62
2022/11/25 01:45:58;;;;;;;13.75;5.05;;;;;;;;;;5072624;28;20040;-62
2022/11/25 01:48:32;;;;;;;13.43;3.85;;;;;;;;;;5084269;28;20105;-62
2022/11/25 01:50:59;;;;;;;8.70;4.10;;;;;;;;;;5081796;28;20079;-62
2022/11/25 01:53:25;;;;;;;11.73;4.50;;;;;;;;;;5076150;28;20044;-62
2022/11/25 01:55:54;;;;;;;17.42;4.68;;;;;;;;;;5099476;28;20424;-62
2022/11/25 01:58:22;;;;;;;17.33;5.55;;;;;;;;;;5092231;28;20100;-62
2022/11/25 02:00:51;;;;;;;18.02;4.78;;;;;;;;;;5079833;28;20520;-62
2022/11/25 02:03:23;;;;;;;16.20;4.78;;;;;;;;;;5085163;28;20036;-62
2022/11/25 02:05:50;;;;;;;11.13;4.53;;;;;;;;;;5081704;28;20032;-62
2022/11/25 02:08:16;;;;;;;17.92;4.82;;;;;;;;;;5082425;28;20084;-62
2022/11/25 02:10:43;;;;;;;10.18;3.97;;;;;;;;;;5088385;28;20098;-62
2022/11/25 02:13:10;;;;;;;16.90;4.32;;;;;;;;;;5086602;28;20046;-63
2022/11/25 02:15:36;;;;;;;10.95;4.68;;;;;;;;;;5088300;28;20029;-62
2022/11/25 02:18:02;;;;;;;13.27;4.38;;;;;;;;;;5099107;28;20044;-62
2022/11/25 02:20:28;;;;;;;15.07;4.63;;;;;;;;;;5126470;27;20088;-62
2022/11/25 02:23:13;;;;;;;12.15;4.75;;;;;;;;;;5115605;27;20127;-62
2022/11/25 02:25:40;;;;;;;14.05;5.75;;;;;;;;;;5116470;27;20091;-62
2022/11/25 02:28:18;;;;;;;13.60;5.15;;;;;;;;;;5134223;27;20039;-62
2022/11/25 02:30:44;;;;;;;13.57;4.13;;;;;;;;;;5132651;27;20038;-62
2022/11/25 02:33:11;;;;;;;9.02;4.53;;;;;;;;;;5135213;27;20307;-62
2022/11/25 02:35:42;;;;;;;8.80;3.95;;;;;;;;;;5114411;27;20539;-62
2022/11/25 02:38:17;;;;;;;8.38;4.35;;;;;;;;;;5130704;27;20069;-62
2022/11/25 02:40:47;;;;;;;8.63;4.32;;;;;;;;;;5131680;27;20110;-63
2022/11/25 02:43:13;;;;;;;14.60;5.68;;;;;;;;;;5130901;27;20051;-63
2022/11/25 02:45:51;;;;;;;10.05;4.25;;;;;;;;;;5127724;27;20054;-62
2022/11/25 02:48:18;;;;;;;9.13;3.75;;;;;;;;;;5133779;27;20512;-62
2022/11/25 02:50:44;;;;;;;11.90;4.82;;;;;;;;;;5123079;27;20034;-63
2022/11/25 02:53:10;;;;;;;13.18;5.07;;;;;;;;;;5125951;27;20046;-62
2022/11/25 02:55:37;;;;;;;13.13;4.63;;;;;;;;;;5113431;27;20043;-62
2022/11/25 02:58:03;;;;;;;12.95;5.05;;;;;;;;;;5133644;27;20484;-63
2022/11/25 03:00:29;;;;;;;12.18;4.57;;;;;;;;;;5127519;27;20183;-62
2022/11/25 03:02:55;;;;;;;9.15;4.47;;;;;;;;;;5128632;27;20050;-62
2022/11/25 03:05:22;;;;;;;11.45;3.90;;;;;;;;;;5104219;28;20050;-63
2022/11/25 03:07:48;;;;;;;17.88;5.15;;;;;;;;;;5127140;27;20488;-62
2022/11/25 03:10:15;;;;;;;16.73;4.75;;;;;;;;;;5120581;27;20400;-62
2022/11/25 03:12:41;;;;;;;16.95;4.95;;;;;;;;;;5133039;27;20027;-62
2022/11/25 03:15:07;;;;;;;11.90;4.78;;;;;;;;;;5125163;27;20524;-62
2022/11/25 03:17:34;;;;;;;9.98;4.25;;;;;;;;;;5129727;27;20031;-62
2022/11/25 03:20:00;;;;;;;10.07;4.85;;;;;;;;;;5110509;27;20055;-63
2022/11/25 03:22:26;;;;;;;13.02;5.05;;;;;;;;;;5129060;27;20504;-62
2022/11/25 03:24:52;;;;;;;11.43;4.90;;;;;;;;;;5121401;27;20127;-61
2022/11/25 03:27:19;;;;;;;18.58;5.95;;;;;;;;;;5128292;27;20122;-62
2022/11/25 03:29:45;;;;;;;9.77;4.40;;;;;;;;;;5124720;27;20040;-62
2022/11/25 03:32:11;;;;;;;12.75;5.78;;;;;;;;;;5115540;27;20074;-62
2022/11/25 03:34:37;;;;;;;13.55;5.72;;;;;;;;;;5115412;27;20039;-62
2022/11/25 03:37:03;;;;;;;9.55;4.45;;;;;;;;;;5125016;27;20050;-62
2022/11/25 03:39:30;;;;;;;10.55;4.57;;;;;;;;;;5117228;27;20035;-63
2022/11/25 03:41:56;;;;;;;12.27;4.80;;;;;;;;;;5107109;27;20043;-62
2022/11/25 03:44:22;;;;;;;9.80;3.65;;;;;;;;;;5122851;27;20123;-63
2022/11/25 03:46:48;;;;;;;8.57;4.43;;;;;;;;;;5128949;27;20031;-63
2022/11/25 03:49:14;;;;;;;11.15;4.18;;;;;;;;;;5127840;27;20036;-62
2022/11/25 03:51:41;;;;;;;14.45;4.47;;;;;;;;;;5126548;27;20056;-63
2022/11/25 03:54:07;;;;;;;10.55;4.20;;;;;;;;;;5119880;27;20039;-62
2022/11/25 03:56:33;;;;;;;10.70;5.78;;;;;;;;;;5119177;27;20078;-62
2022/11/25 03:58:59;;;;;;;9.05;4.00;;;;;;;;;;5106361;27;20075;-62
2022/11/25 04:01:26;;;;;;;10.10;4.90;;;;;;;;;;5117371;27;20036;-62
2022/11/25 04:03:52;;;;;;;10.13;4.70;;;;;;;;;;5113847;27;20070;-63
2022/11/25 04:06:20;;;;;;;7.95;4.63;;;;;;;;;;5122521;27;20063;-63
2022/11/25 04:08:46;;;;;;;10.05;4.95;;;;;;;;;;5123357;27;20389;-62
2022/11/25 04:11:13;;;;;;;8.82;5.18;;;;;;;;;;5119775;27;20028;-62
2022/11/25 04:13:39;;;;;;;8.48;4.60;;;;;;;;;;5118125;27;20393;-63
2022/11/25 04:16:05;;;;;;;11.57;5.32;;;;;;;;;;5123526;27;20046;-63
2022/11/25 04:18:32;;;;;;;13.10;5.13;;;;;;;;;;5113170;27;20059;-62
2022/11/25 04:20:58;;;;;;;15.02;5.75;;;;;;;;;;5111828;27;20416;-62
2022/11/25 04:23:24;;;;;;;10.40;5.63;;;;;;;;;;5114567;27;20118;-63
2022/11/25 04:25:50;;;;;;;12.07;5.20;;;;;;;;;;5120458;27;20059;-63
2022/11/25 04:28:16;;;;;;;12.00;5.22;;;;;;;;;;5123607;27;20131;-62
2022/11/25 04:30:43;;;;;;;8.10;5.20;;;;;;;;;;5105414;27;20043;-63
2022/11/25 04:33:09;;;;;;;11.98;5.45;;;;;;;;;;5122968;27;20035;-63
2022/11/25 04:35:35;;;;;;;14.52;6.22;;;;;;;;;;5123433;27;20118;-62
2022/11/25 04:38:01;;;;;;;15.00;6.13;;;;;;;;;;5104532;27;20035;-62
2022/11/25 04:40:27;;;;;;;14.43;4.97;;;;;;;;;;5123158;27;20404;-62
2022/11/25 04:42:53;;;;;;;9.60;5.78;;;;;;;;;;5118648;27;20035;-62
2022/11/25 04:45:20;;;;;;;16.55;5.95;;;;;;;;;;5122790;27;20348;-62
2022/11/25 04:47:46;;;;;;;15.93;5.95;;;;;;;;;;5127604;27;20084;-65
2022/11/25 04:50:14;;;;;;;11.25;5.38;;;;;;;;;;5110424;27;20035;-62
2022/11/25 04:52:40;;;;;;;16.08;6.88;;;;;;;;;;5107805;28;20402;-64
2022/11/25 04:55:06;;;;;;;17.45;6.53;;;;;;;;;;5127342;27;20552;-62
2022/11/25 04:57:33;;;;;;;10.73;6.07;;;;;;;;;;5125679;27;20134;-62
2022/11/25 04:59:59;;;;;;;17.92;6.72;;;;;;;;;;5114961;27;20039;-62
2022/11/25 05:02:26;;;;;;;13.35;5.22;;;;;;;;;;5124169;27;20131;-62
2022/11/25 05:04:54;;;;;;;15.38;5.95;;;;;;;;;;5126784;27;20189;-64
2022/11/25 05:07:21;;;;;;;15.27;7.55;;;;;;;;;;5123981;27;20118;-62
2022/11/25 05:09:47;;;;;;;14.15;6.43;;;;;;;;;;5120215;27;20023;-62
2022/11/25 05:12:17;;;;;;;15.32;6.70;;;;;;;;;;5113336;27;20115;-62
2022/11/25 05:14:43;;;;;;;14.65;5.75;;;;;;;;;;5125469;27;20043;-62
2022/11/25 05:17:13;;;;;;;15.40;6.15;;;;;;;;;;5116595;27;20509;-62
2022/11/25 05:19:39;;;;;;;12.35;6.10;;;;;;;;;;5121829;27;20047;-62
2022/11/25 05:22:05;;;;;;;13.55;6.40;;;;;;;;;;5110672;27;20167;-62
2022/11/25 05:24:31;;;;;;;16.10;5.72;;;;;;;;;;5118057;27;20121;-62
2022/11/25 05:26:57;;;;;;;16.02;6.05;;;;;;;;;;5110854;27;20116;-62
2022/11/25 05:29:24;;;;;;;13.10;5.68;;;;;;;;;;5114547;27;20027;-62
2022/11/25 05:31:50;;;;;;;15.18;5.70;;;;;;;;;;5113076;27;20077;-62
2022/11/25 05:34:16;;;;;;;15.68;6.18;;;;;;;;;;5117653;27;20118;-62
2022/11/25 05:36:42;;;;;;;16.10;6.65;;;;;;;;;;5121054;27;20110;-62
2022/11/25 05:39:08;;;;;;;21.38;6.18;;;;;;;;;;5125418;27;20042;-62
2022/11/25 05:41:34;;;;;;;16.20;6.53;;;;;;;;;;5120669;27;20039;-62
2022/11/25 05:44:01;;;;;;;17.00;7.68;;;;;;;;;;5113533;27;20028;-62
2022/11/25 05:46:27;;;;;;;14.32;5.93;;;;;;;;;;5104371;28;20614;-62
2022/11/25 05:48:54;;;;;;;13.23;6.68;;;;;;;;;;5120139;27;20035;-62
2022/11/25 05:51:21;;;;;;;18.30;6.38;;;;;;;;;;5119687;27;20036;-62
2022/11/25 05:53:47;;;;;;;14.73;5.68;;;;;;;;;;5122983;27;20400;-62
2022/11/25 05:56:13;;;;;;;14.70;5.75;;;;;;;;;;5119126;27;20035;-62
2022/11/25 05:58:39;;;;;;;14.57;6.32;;;;;;;;;;5104990;27;20152;-62
2022/11/25 06:01:07;;;;;;;10.57;5.38;;;;;;;;;;5121922;27;20091;-62
2022/11/25 06:03:33;;;;;;;20.13;6.53;;;;;;;;;;5108389;28;20063;-62
2022/11/25 06:06:00;;;;;;;11.77;5.30;;;;;;;;;;5122224;28;20043;-62
2022/11/25 06:08:27;;;;;;;20.55;5.90;;;;;;;;;;5118801;28;20500;-62
2022/11/25 06:10:53;;;;;;;18.95;5.90;;;;;;;;;;5103037;28;20051;-62
2022/11/25 06:13:20;;;;;;;12.40;6.30;;;;;;;;;;5123747;28;20464;-62
2022/11/25 06:15:46;;;;;;;13.25;6.70;;;;;;;;;;5115232;28;20043;-62
2022/11/25 06:18:13;;;;;;;13.35;5.78;;;;;;;;;;5114606;28;20070;-62
2022/11/25 06:20:39;;;;;;;16.42;6.70;;;;;;;;;;5118747;28;20144;-61
2022/11/25 06:23:06;;;;;;;12.85;5.25;;;;;;;;;;5103322;28;20561;-62
2022/11/25 06:25:33;;;;;;;14.85;5.90;;;;;;;;;;5122514;28;20042;-61
2022/11/25 06:28:00;;;;;;;15.45;6.38;;;;;;;;;;5127216;28;20032;-62
2022/11/25 06:30:26;;;;;;;15.32;6.28;;;;;;;;;;5121526;28;20110;-62
2022/11/25 06:32:54;;;;;;;19.30;6.68;;;;;;;;;;5115409;28;20042;-62
2022/11/25 06:35:20;;;;;;;13.05;6.38;;;;;;;;;;5120129;28;20046;-62
2022/11/25 06:37:46;;;;;;;18.23;6.53;;;;;;;;;;5104708;28;20039;-62
2022/11/25 06:40:12;;;;;;;13.20;5.53;;;;;;;;;;5125622;28;20235;-62
2022/11/25 06:42:42;;;;;;;13.05;5.63;;;;;;;;;;5126789;28;20039;-61
2022/11/25 06:45:08;;;;;;;9.95;5.13;;;;;;;;;;5115033;28;20488;-62
2022/11/25 06:47:34;;;;;;;12.65;5.30;;;;;;;;;;5124079;28;20313;-63
2022/11/25 06:50:01;;;;;;;14.35;5.68;;;;;;;;;;5109999;28;20039;-63
2022/11/25 06:52:29;;;;;;;12.48;5.70;;;;;;;;;;5120948;28;20496;-63
2022/11/25 06:54:55;;;;;;;11.65;5.72;;;;;;;;;;5119224;27;20045;-63
2022/11/25 06:57:22;;;;;;;14.38;6.03;;;;;;;;;;5126055;27;20118;-62
2022/11/25 06:59:50;;;;;;;13.75;6.20;;;;;;;;;;5119298;27;20040;-63
2022/11/25 07:02:16;;;;;;;10.57;5.72;;;;;;;;;;5117634;27;20677;-62
2022/11/25 07:04:43;;;;;;;14.55;5.05;;;;;;;;;;5126378;27;20050;-63
2022/11/25 07:07:10;;;;;;;14.57;6.22;;;;;;;;;;5131133;27;20077;-63
2022/11/25 07:09:36;;;;;;;10.90;6.68;;;;;;;;;;5122557;27;20045;-63
2022/11/25 07:12:02;;;;;;;18.10;7.85;;;;;;;;;;5131349;27;20035;-63
2022/11/25 07:14:29;;;;;;;12.95;6.97;;;;;;;;;;5119027;27;20476;-63
2022/11/25 07:16:56;;;;;;;14.00;6.68;;;;;;;;;;5117143;27;20043;-63
2022/11/25 07:19:23;;;;;;;9.88;5.90;;;;;;;;;;5094592;28;20056;-63
2022/11/25 07:21:49;;;;;;;17.45;6.43;;;;;;;;;;5101833;28;20055;-62
2022/11/25 07:24:18;;;;;;;11.20;5.90;;;;;;;;;;5098277;28;20096;-63
2022/11/25 07:26:44;;;;;;;17.90;7.22;;;;;;;;;;5100454;28;20032;-63
2022/11/25 07:29:12;;;;;;;13.65;6.78;;;;;;;;;;5104710;28;20039;-62
2022/11/25 07:31:40;;;;;;;11.68;5.97;;;;;;;;;;5103682;28;20043;-63
2022/11/25 07:34:17;;;;;;;11.50;5.68;;;;;;;;;;5103236;28;20067;-63
2022/11/25 07:36:44;;;;;;;12.60;5.25;;;;;;;;;;5102944;28;20417;-63
2022/11/25 07:39:11;;;;;;;15.57;6.80;;;;;;;;;;5106521;28;20197;-63
2022/11/25 07:41:39;;;;;;;9.85;4.97;;;;;;;;;;5103954;28;20043;-63
2022/11/25 07:44:07;;;;;;;12.52;5.63;;;;;;;;;;5099421;28;20043;-63
2022/11/25 07:46:38;;;;;;;10.07;5.13;;;;;;;;;;5097717;28;20481;-63
2022/11/25 07:49:06;;;;;;;11.57;5.22;;;;;;;;;;5105958;28;20050;-63
2022/11/25 07:51:34;;;;;;;12.02;5.88;;;;;;;;;;5100198;28;20053;-63
2022/11/25 07:54:02;;;;;;;12.32;5.07;;;;;;;;;;5098297;28;20051;-63
2022/11/25 07:56:29;;;;;;;12.23;5.78;;;;;;;;;;5109399;28;20218;-63
2022/11/25 07:58:56;;;;;;;11.73;5.18;;;;;;;;;;5103448;28;20035;-62
2022/11/25 08:01:23;;;;;;;22.88;6.88;;;;;;;;;;5098558;28;20066;-62
2022/11/25 08:03:50;;;;;;;11.68;5.03;;;;;;;;;;5102107;28;20044;-63
2022/11/25 08:06:18;;;;;;;11.57;4.97;;;;;;;;;;5097141;28;20040;-63
2022/11/25 08:08:46;;;;;;;10.48;6.05;;;;;;;;;;5101508;28;20032;-62
2022/11/25 08:11:17;;;;;;;12.23;5.38;;;;;;;;;;5092215;28;20044;-63
2022/11/25 08:13:43;;;;;;;15.52;5.20;;;;;;;;;;5103801;28;20488;-63
2022/11/25 08:16:11;;;;;;;13.13;4.97;;;;;;;;;;5101250;28;20039;-63
2022/11/25 08:18:39;;;;;;;8.07;5.13;;;;;;;;;;5103732;28;20039;-62
2022/11/25 08:21:07;;;;;;;9.13;5.03;;;;;;;;;;5122378;27;20137;-62
2022/11/25 08:23:34;;;;;;;11.95;4.90;;;;;;;;;;5116830;27;20036;-62
2022/11/25 08:26:04;;;;;;;11.63;4.95;;;;;;;;;;5121258;27;20035;-62
2022/11/25 08:28:31;;;;;;;7.85;5.13;;;;;;;;;;5116173;27;20099;-62
2022/11/25 08:31:05;;;;;;;18.75;6.07;;;;;;;;;;5106970;27;20117;-62
2022/11/25 08:33:31;;;;;;;11.52;5.88;;;;;;;;;;5116701;27;20389;-62
2022/11/25 08:35:58;;;;;;;9.77;4.57;;;;;;;;;;5123428;27;20046;-62
2022/11/25 08:38:26;;;;;;;16.13;5.53;;;;;;;;;;5121663;27;20553;-63
2022/11/25 08:40:52;;;;;;;15.90;6.60;;;;;;;;;;5124592;27;20554;-62
2022/11/25 08:43:20;;;;;;;7.93;4.25;;;;;;;;;;5110354;27;20513;-62
2022/11/25 08:45:48;;;;;;;17.65;5.18;;;;;;;;;;5116490;27;20043;-62
2022/11/25 08:48:15;;;;;;;6.40;4.05;;;;;;;;;;5113359;27;20046;-63
2022/11/25 08:50:45;;;;;;;9.95;4.80;;;;;;;;;;5114716;27;20492;-62
2022/11/25 08:53:11;;;;;;;7.95;4.97;;;;;;;;;;5114760;27;20039;-61
2022/11/25 08:55:38;;;;;;;8.93;4.78;;;;;;;;;;5116614;27;20032;-61
2022/11/25 08:58:08;;;;;;;9.43;4.68;;;;;;;;;;5096863;27;20039;-62
2022/11/25 09:00:40;;;;;;;9.57;4.85;;;;;;;;;;5113555;27;20066;-62
2022/11/25 09:03:07;;;;;;;13.70;5.22;;;;;;;;;;5094645;27;20031;-62
2022/11/25 09:05:35;;;;;;;10.95;5.28;;;;;;;;;;5111715;27;20041;-62
2022/11/25 09:08:03;;;;;;;8.13;4.65;;;;;;;;;;5111604;27;20578;-62
2022/11/25 09:10:30;;;;;;;11.55;5.30;;;;;;;;;;5119744;27;20518;-62
2022/11/25 09:12:57;;;;;;;12.35;5.20;;;;;;;;;;5119375;27;20039;-62
2022/11/25 09:15:24;;;;;;;9.77;5.35;;;;;;;;;;5094131;28;21724;-62
2022/11/25 09:17:57;;;;;;;13.55;4.95;;;;;;;;;;5094697;28;20036;-62
2022/11/25 09:20:24;;;;;;;6.93;4.22;;;;;;;;;;5115054;27;20132;-62
2022/11/25 09:22:51;;;;;;;9.55;4.80;;;;;;;;;;5116196;27;20126;-62
2022/11/25 09:25:17;;;;;;;16.45;4.75;;;;;;;;;;5113283;27;20407;-62
2022/11/25 09:27:44;;;;;;;8.75;5.03;;;;;;;;;;5113757;27;20455;-62
2022/11/25 09:30:11;;;;;;;9.48;4.50;;;;;;;;;;5096464;27;20509;-62
2022/11/25 09:32:37;;;;;;;7.45;4.15;;;;;;;;;;5094442;27;20042;-62
2022/11/25 09:35:04;;;;;;;8.27;4.75;;;;;;;;;;5110196;27;20112;-62
2022/11/25 09:37:30;;;;;;;10.57;4.43;;;;;;;;;;5112422;27;20031;-62
2022/11/25 09:39:56;;;;;;;9.77;4.22;;;;;;;;;;5114173;27;20074;-62
2022/11/25 09:48:23;;;;;;;5.95;3.70;;;;;;;;;;5111505;27;20039;-62
2022/11/25 09:50:50;;;;;;;13.65;4.25;;;;;;;;;;5108186;27;20413;-62
2022/11/25 09:53:35;;;;;;;6.78;3.42;;;;;;;;;;5121269;27;20027;-62
2022/11/25 09:56:04;;;;;;;8.13;4.10;;;;;;;;;;5088349;27;20500;-62
2022/11/25 09:58:30;;;;;;;7.32;4.05;;;;;;;;;;5118181;27;20031;-62
2022/11/25 10:00:57;;;;;;;8.73;3.78;;;;;;;;;;5114379;27;20533;-62
2022/11/25 10:03:42;;;;;;;6.80;3.83;;;;;;;;;;5083234;28;20039;-62
2022/11/25 10:06:09;;;;;;;9.35;4.18;;;;;;;;;;5114564;28;20091;-62
2022/11/25 10:08:41;;;;;;;8.45;4.10;;;;;;;;;;5118479;28;20038;-62
2022/11/25 10:11:23;;;;;;;10.75;4.00;;;;;;;;;;5110990;28;20032;-62
2022/11/25 10:14:15;;;;;;;10.02;4.32;;;;;;;;;;5119967;28;20103;-62
2022/11/25 10:16:53;;;;;;;10.63;4.95;;;;;;;;;;5118932;28;20328;-63
2022/11/25 10:19:40;;;;;;;6.13;3.60;;;;;;;;;;5111205;28;20086;-63
2022/11/25 10:22:32;;;;;;;7.13;3.70;;;;;;;;;;5115980;28;20048;-63
2022/11/25 10:25:06;;;;;;;6.88;3.78;;;;;;;;;;5114910;28;20086;-63
2022/11/25 10:27:35;;;;;;;10.02;3.85;;;;;;;;;;5114868;27;20031;-63
2022/11/25 10:30:04;;;;;;;7.25;4.28;;;;;;;;;;5117491;27;20035;-63
2022/11/25 10:32:41;;;;;;;10.40;4.03;;;;;;;;;;5117557;27;20078;-63
2022/11/25 10:35:12;;;;;;;9.25;3.42;;;;;;;;;;5120128;27;20043;-63
2022/11/25 10:37:44;;;;;;;10.13;3.88;;;;;;;;;;5121438;27;20163;-62
2022/11/25 10:40:17;;;;;;;16.33;4.60;;;;;;;;;;5108399;28;20071;-63
2022/11/25 10:42:43;;;;;;;8.25;4.53;;;;;;;;;;5116198;27;20039;-63
2022/11/25 10:45:11;;;;;;;8.57;3.97;;;;;;;;;;5121013;27;20508;-63
2022/11/25 10:47:56;;;;;;;6.95;3.83;;;;;;;;;;5124857;27;20066;-63
2022/11/25 10:50:23;;;;;;;11.57;4.78;;;;;;;;;;5124530;27;20034;-63
2022/11/25 10:52:57;;;;;;;8.05;3.38;;;;;;;;;;5117676;27;20051;-63
2022/11/25 10:55:25;;;;;;;13.52;4.03;;;;;;;;;;5106245;27;20514;-63
2022/11/25 10:57:53;;;;;;;9.88;3.70;;;;;;;;;;5113498;27;20051;-63
2022/11/25 11:00:33;;;;;;;11.30;4.38;;;;;;;;;;5114800;27;20421;-63
2022/11/25 11:03:13;;;;;;;10.30;3.92;;;;;;;;;;5122481;27;20399;-63
2022/11/25 11:05:45;;;;;;;11.52;4.85;;;;;;;;;;5114265;27;20412;-63
2022/11/25 11:08:11;;;;;;;8.70;3.63;;;;;;;;;;5113554;27;20034;-63
2022/11/25 11:10:38;;;;;;;12.82;4.07;;;;;;;;;;5102472;27;20196;-63
2022/11/25 11:13:06;;;;;;;13.20;4.80;;;;;;;;;;5118630;27;20429;-63
2022/11/25 11:15:43;;;;;;;17.27;4.07;;;;;;;;;;5098784;27;20034;-63
2022/11/25 11:18:19;;;;;;;9.68;3.67;;;;;;;;;;5123497;27;20579;-63
2022/11/25 11:20:47;;;;;;;8.75;4.55;;;;;;;;;;5086567;28;20087;-63
2022/11/25 11:23:13;;;;;;;11.02;3.95;;;;;;;;;;5084478;28;20036;-63
2022/11/25 11:25:41;;;;;;;11.70;3.95;;;;;;;;;;5083186;28;20437;-63
2022/11/25 11:28:26;;;;;;;9.40;3.38;;;;;;;;;;5082558;28;20039;-63
2022/11/25 11:30:56;;;;;;;13.10;3.67;;;;;;;;;;5076056;28;20052;-63
2022/11/25 11:33:28;;;;;;;12.00;3.72;;;;;;;;;;5080694;28;20036;-63
2022/11/25 11:35:55;;;;;;;;;;;;;;;;;;5086429;28;20032;-63
2022/11/25 11:38:33;;;;;;;9.57;3.35;;;;;;;;;;5081369;28;19970;-63
2022/11/25 11:41:05;;;;;;;10.68;3.47;;;;;;;;;;5081951;28;20031;-63
2022/11/25 11:43:31;;;;;;;10.57;3.88;;;;;;;;;;5079519;28;20510;-63
2022/11/25 11:46:11;;;;;;;8.60;3.55;;;;;;;;;;5088525;28;20045;-63
2022/11/25 11:48:39;;;;;;;11.68;3.85;;;;;;;;;;5082034;28;20485;-63
2022/11/25 11:51:27;;;;;;;16.35;4.28;;;14.60;99.90;;;;;;5080170;28;20294;-64
2022/11/25 11:54:45;;;;;;;15.98;4.22;;;12.10;99.90;;;;;;5083658;28;20101;-64
2022/11/25 11:57:48;;;;;;;11.73;3.75;;;12.30;99.90;;;;;;5052301;28;20440;-63
2022/11/25 12:00:25;;;;;;;10.38;3.53;;;12.50;99.90;;;;;;5084185;28;20100;-63
2022/11/25 12:03:24;;;;;;;17.27;3.85;;;12.60;99.90;;;;;;5081794;28;20852;-63
2022/11/25 12:05:53;;;;;;;9.82;4.50;;;;;;;;;;5070350;28;20459;-63
2022/11/25 12:08:26;;;;;;;13.40;4.32;;;;;;;;;;5080700;28;20047;-63
2022/11/25 12:11:29;;;;;;;17.40;3.78;;;12.80;99.90;;;;;;5074960;28;20126;-64
2022/11/25 12:14:05;;;;;;;10.10;2.85;;;13.80;99.90;;;;;;5059619;28;20493;-63
2022/11/25 12:16:42;;;;;;;10.98;3.53;;;;;;;;;;5089323;28;20067;-63
2022/11/25 12:19:14;;;;;;;13.05;3.85;;;;;;;;;;5074178;28;20044;-64
2022/11/25 12:21:59;;;;;;;12.80;3.78;;;;;;;;;;5076778;28;20047;-63
2022/11/25 12:24:49;;;;;;;12.15;3.28;;;;;;;;;;5077931;28;20072;-63
2022/11/25 12:27:15;;;;;;;11.95;3.55;;;;;;;;;;5075580;28;20508;-64
2022/11/25 12:29:48;;;;;;;8.05;3.08;;;;;;;;;;5081635;28;20510;-64
2022/11/25 12:32:41;;;;;;;10.85;4.05;;;14.70;99.90;;;;;;5071765;28;20044;-63
2022/11/25 12:35:07;;;;;;;;;;;;;;;;;;5078629;28;20397;-64
2022/11/25 12:37:36;;;;;;;10.07;3.35;;;;;;;;;;5086834;28;19920;-64
2022/11/25 12:40:11;;;;;;;10.90;3.15;;;;;;;;;;5088326;28;20044;-64
2022/11/25 12:42:39;;;;;;;9.15;3.08;;;;;;;;;;5079143;28;20064;-64
2022/11/25 12:45:15;;;;;;;8.82;3.67;;;;;;;;;;5074099;28;20060;-64
2022/11/25 12:47:42;;;;;;;16.10;4.95;;;;;;;;;;5057812;28;20123;-64
2022/11/25 12:50:14;;;;;;;13.63;3.75;;;;;;;;;;5073548;28;20067;-64
2022/11/25 12:52:49;;;;;;;9.47;2.87;;;;;;;;;;5074082;28;20448;-64
2022/11/25 12:55:18;;;;;;;15.77;4.20;;;;;;;;;;5085552;28;20285;-64
2022/11/25 12:57:59;;;;;;;13.35;3.95;;;;;;;;;;5072335;28;20072;-64
2022/11/25 13:00:35;;;;;;;9.85;3.75;;;;;;;;;;5069832;28;20033;-64
2022/11/25 13:03:17;;;;;;;11.18;3.95;;;;;;;;;;5081224;28;20118;-64
2022/11/25 13:05:46;;;;;;;13.47;3.70;;;;;;;;;;5077979;28;20057;-65
2022/11/25 13:08:13;;;;;;;8.10;3.13;;;;;;;;;;5081085;28;20111;-64
2022/11/25 13:10:42;;;;;;;12.85;4.15;;;;;;;;;;5084787;28;20032;-64
2022/11/25 13:13:15;;;;;;;10.63;4.22;;;;;;;;;;5083507;28;20063;-64
2022/11/25 13:15:43;;;;;;;11.25;4.40;;;;;;;;;;5085300;28;20047;-64
2022/11/25 13:18:22;;;;;;;8.52;3.08;;;17.20;99.90;;;;;;5073972;28;20043;-64
2022/11/25 13:20:53;;;;;;;9.65;3.58;;;12.80;99.90;;;;;;5111357;27;20043;-64
2022/11/25 13:23:23;;;;;;;7.93;3.60;;;12.50;99.90;;;;;;5118730;27;20043;-64
2022/11/25 13:25:50;;;;;;;8.00;3.53;;;;;;;;;;5112724;27;20663;-64
2022/11/25 13:28:28;;;;;;;12.93;3.67;;;;;;;;;;5117855;27;20058;-64
2022/11/25 13:30:55;;;;;;;9.82;3.72;;;;;;;;;;5117338;27;20041;-64
2022/11/25 13:33:22;;;;;;;13.25;4.32;;;;;;;;;;5121477;27;20047;-64
2022/11/25 13:35:55;;;;;;;8.73;3.30;;;;;;;;;;5111141;27;20032;-64
2022/11/25 13:38:34;;;;;;;7.10;3.03;;;;;;;;;;5121454;27;20042;-64
2022/11/25 13:41:21;;;;;;;8.20;3.47;;;;;;;;;;5123131;27;20202;-64
2022/11/25 13:43:53;;;;;;;6.78;2.90;;;;;;;;;;5097393;28;20386;-64
2022/11/25 13:46:43;;;;;;;9.05;2.97;;;;;;;;;;5114791;27;20058;-64
2022/11/25 13:49:41;;;;;;;10.35;3.90;;;12.60;99.90;;;;;;5096882;27;20178;-63
2022/11/25 13:52:13;;;;;;;10.38;3.20;;;;;;;;;;5114165;27;20043;-64
2022/11/25 13:54:54;;;;;;;7.22;2.90;;;13.30;99.90;;;;;;5111725;27;20035;-64
2022/11/25 13:57:28;;;;;;;9.82;2.97;;;12.80;99.90;;;;;;5096621;28;20450;-64
2022/11/25 14:00:17;;;;;;;15.18;5.07;;;12.60;99.90;;;;;;5113960;28;20050;-64
2022/11/25 14:02:44;;;;;;;11.07;3.78;;;12.40;99.90;;;;;;5092038;28;20069;-64
2022/11/25 14:05:29;;;;;;;14.27;3.78;;;;;;;;;;5112405;27;20406;-64
2022/11/25 14:08:27;;;;;;;14.02;3.97;;;12.30;99.90;;;;;;5114547;27;20039;-63
2022/11/25 14:11:05;;;;;;;5.25;3.00;;;12.10;99.90;;;;;;5112856;28;20039;-63
2022/11/25 14:14:09;;;;;;;10.38;3.38;;;12.00;99.90;;;;;;5114255;28;20489;-63
2022/11/25 14:16:35;;;;;;;6.78;3.10;;;;;;;;;;5107618;28;20389;-63
2022/11/25 14:19:20;;;;;;;9.35;4.20;;;12.00;99.90;;;;;;5120658;28;20039;-64
2022/11/25 14:21:49;;;;;;;8.77;4.72;;;11.80;99.90;;;;;;5085485;28;20047;-64
2022/11/25 14:24:23;;;;;;;15.38;3.70;;;;;;;;;;5086077;28;20036;-64
2022/11/25 14:26:53;;;;;;;11.52;3.10;;;;;;;;;;5085691;28;20123;-63
2022/11/25 14:29:19;;;;;;;15.40;4.45;;;;;;;;;;5085494;28;20043;-64
2022/11/25 14:31:50;;;;;;;7.13;3.08;;;;;;;;;;5084802;28;20496;-64
2022/11/25 14:34:22;;;;;;;10.15;3.83;;;;;;;;;;5081957;28;20039;-63
2022/11/25 14:36:50;;;;;;;6.93;4.15;;;;;;;;;;5087369;28;20036;-63
2022/11/25 14:39:25;;;;;;;15.15;3.72;;;;;;;;;;5087212;28;20498;-63
2022/11/25 14:42:04;;;;;;;9.82;3.08;;;;;;;;;;5080327;28;20046;-64
2022/11/25 14:44:48;;;;;;;12.40;3.75;;;;;;;;;;5081174;28;20044;-63
2022/11/25 14:47:15;;;;;;;14.45;4.68;;;;;;;;;;5087028;28;20456;-64
2022/11/25 14:49:42;;;;;;;10.52;4.13;;;;;;;;;;5086295;28;20532;-63
2022/11/25 14:52:09;;;;;;;12.55;3.72;;;;;;;;;;5086869;28;20044;-63
2022/11/25 14:54:41;;;;;;;11.00;4.18;;;;;;;;;;5083023;28;20111;-64